Time;durP1;ratioP1;P1;durP2;ratioP2;P2;SDS_P1;SDS_P2;PMS_P1;PMS_P2;Temp;Humidity;BMP_temperature;BMP_pressure;BME280_temperature;BME280_humidity;BME280_pressure;Samples;Min_cycle;Max_cycle;Signal;HPM_P1;HPM_P2
2021/06/09 00:01:59;;;;;;;24.58;22.10;;;;;;;20.78;50.98;102120.91;5016350;28;114897;-74
2021/06/09 00:04:26;;;;;;;24.50;21.90;;;;;;;20.76;51.02;102117.44;5018647;28;124794;-76
2021/06/09 00:06:53;;;;;;;26.15;23.00;;;;;;;20.73;51.02;102117.66;5012101;28;123192;-75
2021/06/09 00:09:20;;;;;;;25.45;22.83;;;;;;;20.71;50.98;102114.19;5021435;28;113995;-75
2021/06/09 00:11:47;;;;;;;25.85;22.88;;;;;;;20.68;50.92;102114.44;5027544;28;114462;-75
2021/06/09 00:14:16;;;;;;;28.90;24.55;;;;;;;20.63;51.50;102111.16;5008666;28;124037;-75
2021/06/09 00:16:44;;;;;;;25.77;22.98;;;;;;;20.60;51.33;102119.44;5020792;28;124385;-75
2021/06/09 00:19:12;;;;;;;24.63;22.13;;;;;;;20.55;51.11;102114.34;5014801;27;114192;-75
2021/06/09 00:21:40;;;;;;;28.77;23.35;;;;;;;20.54;51.10;102118.00;5014591;28;114275;-75
2021/06/09 00:24:08;;;;;;;27.48;23.50;;;;;;;20.54;51.33;102117.13;5023198;28;123969;-75
2021/06/09 00:26:35;;;;;;;27.13;22.48;;;;;;;20.51;51.21;102114.63;5018344;28;122688;-75
2021/06/09 00:29:02;;;;;;;27.60;23.25;;;;;;;20.48;51.46;102120.25;5021392;27;114575;-75
2021/06/09 00:31:29;;;;;;;24.77;22.17;;;;;;;20.47;51.56;102110.44;5021623;28;113477;-75
2021/06/09 00:33:56;;;;;;;26.10;23.30;;;;;;;20.42;51.86;102114.31;5016496;28;124824;-76
2021/06/09 00:36:23;;;;;;;26.52;23.67;;;;;;;20.41;51.60;102117.94;5013409;27;123663;-75
2021/06/09 00:38:50;;;;;;;27.00;24.15;;;;;;;20.41;51.61;102112.56;5019963;28;113793;-76
2021/06/09 00:41:17;;;;;;;26.70;23.90;;;;;;;20.39;51.93;102109.09;5027527;28;113909;-76
2021/06/09 00:43:45;;;;;;;26.75;23.75;;;;;;;20.38;51.81;102118.16;5023126;28;123745;-76
2021/06/09 00:46:12;;;;;;;28.15;25.15;;;;;;;20.37;51.92;102105.66;5026438;28;123842;-75
2021/06/09 00:48:42;;;;;;;28.00;23.98;;;;;;;20.34;51.92;102111.25;5020857;28;114227;-76
2021/06/09 00:51:17;;;;;;;27.50;22.92;;;;;;;20.32;51.67;102113.16;5013695;28;115012;-76
2021/06/09 00:53:50;;;;;;;;;;;;;;;20.29;50.92;102118.78;5016048;28;123757;-75
2021/06/09 00:56:19;;;;;;;24.17;21.65;;;;;;;20.28;51.52;102117.03;5011382;28;124408;-75
2021/06/09 00:58:48;;;;;;;25.38;22.75;;;;;;;20.24;51.89;102115.50;5015775;28;114747;-76
2021/06/09 01:01:18;;;;;;;28.92;24.02;;;;;;;20.22;52.08;102117.44;5020055;28;116758;-76
2021/06/09 01:03:45;;;;;;;25.30;22.70;;;;;;;20.19;52.00;102114.94;5025131;28;125256;-76
2021/06/09 01:06:13;;;;;;;27.10;24.10;;;;;;;20.17;52.02;102114.19;5015161;28;124015;-76
2021/06/09 01:08:42;;;;;;;27.27;23.92;;;;;;;20.15;52.46;102116.13;5015268;28;115068;-76
2021/06/09 01:11:16;;;;;;;27.92;23.60;;;;;;;20.11;52.65;102110.06;5022066;28;113340;-75
2021/06/09 01:13:44;;;;;;;26.25;23.25;;;;;;;20.09;52.33;102111.13;5022142;27;124688;-74
2021/06/09 01:16:11;;;;;;;26.20;23.20;;;;;;;20.06;52.58;102106.84;5025662;28;122735;-74
2021/06/09 01:18:39;;;;;;;27.90;24.30;;;;;;;20.05;52.75;102101.56;5053300;22;113984;-70
2021/06/09 01:21:07;;;;;;;27.27;24.30;;;;;;;20.02;52.81;102095.41;5046324;27;113246;-70
2021/06/09 01:23:36;;;;;;;28.15;23.52;;;;;;;19.99;52.82;102100.97;5047046;27;124008;-71
2021/06/09 01:26:08;;;;;;;28.80;24.40;;;;;;;19.97;52.86;102102.91;5043911;27;123815;-70
2021/06/09 01:28:40;;;;;;;27.83;24.83;;;;;;;19.93;52.77;102101.38;5046178;27;113727;-71
2021/06/09 01:31:07;;;;;;;27.73;24.83;;;;;;;19.90;52.78;102096.19;5048117;27;114688;-71
2021/06/09 01:33:35;;;;;;;27.50;24.10;;;;;;;19.88;52.87;102102.63;5047611;27;123778;-71
2021/06/09 01:36:02;;;;;;;25.45;22.75;;;;;;;19.85;52.94;102098.31;5041291;27;123433;-71
2021/06/09 01:38:29;;;;;;;26.42;23.77;;;;;;;19.82;53.05;102103.91;5046277;27;115846;-71
2021/06/09 01:40:56;;;;;;;28.33;24.35;;;;;;;19.81;53.01;102102.16;5045616;27;114593;-71
2021/06/09 01:43:24;;;;;;;27.00;23.73;;;;;;;19.78;53.14;102102.38;5047732;27;124409;-71
2021/06/09 01:45:51;;;;;;;29.75;25.25;;;;;;;19.77;53.26;102095.25;5045329;27;123918;-71
2021/06/09 01:48:18;;;;;;;30.02;24.48;;;;;;;19.75;53.55;102097.19;5050130;27;114144;-71
2021/06/09 01:50:45;;;;;;;29.02;24.90;;;;;;;19.73;53.09;102099.97;5044584;27;114586;-71
2021/06/09 01:53:12;;;;;;;32.25;26.27;;;;;;;19.71;53.68;102101.00;5050274;27;123923;-71
2021/06/09 01:55:39;;;;;;;27.65;24.65;;;;;;;19.69;53.51;102097.53;5043873;27;123829;-70
2021/06/09 01:58:11;;;;;;;28.67;24.63;;;;;;;19.64;53.52;102096.00;5039306;27;113489;-71
2021/06/09 02:00:45;;;;;;;26.50;23.38;;;;;;;19.60;53.62;102099.84;5040956;27;114362;-72
2021/06/09 02:03:13;;;;;;;26.23;23.42;;;;;;;19.58;53.80;102099.06;5039160;27;124029;-72
2021/06/09 02:05:42;;;;;;;28.15;24.67;;;;;;;19.54;53.73;102097.53;5046604;27;123611;-72
2021/06/09 02:08:11;;;;;;;26.27;23.58;;;;;;;19.52;53.99;102096.78;5049918;27;114420;-72
2021/06/09 02:10:41;;;;;;;28.77;24.13;;;;;;;19.49;53.86;102102.34;5048919;27;114039;-72
2021/06/09 02:13:11;;;;;;;28.77;25.67;;;;;;;19.47;54.19;102109.63;5047411;27;123936;-73
2021/06/09 02:15:39;;;;;;;31.15;24.38;;;;;;;19.46;54.01;102107.91;5046989;27;123822;-72
2021/06/09 02:18:11;;;;;;;27.00;24.08;;;;;;;19.43;54.06;102108.09;5041343;27;114157;-72
2021/06/09 02:20:43;;;;;;;28.98;24.45;;;;;;;19.38;54.01;102099.47;5040581;27;112798;-72
2021/06/09 02:23:15;;;;;;;31.75;26.13;;;;;;;19.36;54.12;102106.75;5042702;27;124168;-72
2021/06/09 02:25:45;;;;;;;28.58;25.48;;;;;;;19.34;54.03;102114.03;5041107;27;124007;-72
2021/06/09 02:28:12;;;;;;;27.73;24.73;;;;;;;19.30;54.15;102107.13;5047769;27;114955;-72
2021/06/09 02:30:45;;;;;;;32.28;26.13;;;;;;;19.23;54.28;102107.53;5046203;27;114147;-72
2021/06/09 02:33:14;;;;;;;29.88;25.85;;;;;;;19.21;54.29;102108.56;5046020;27;124658;-72
2021/06/09 02:35:43;;;;;;;31.08;26.02;;;;;;;19.18;54.60;102098.03;5046787;27;124531;-72
2021/06/09 02:38:11;;;;;;;31.50;26.90;;;;;;;19.16;54.52;102099.94;5048302;27;113990;-72
2021/06/09 02:40:40;;;;;;;29.05;25.30;;;;;;;19.11;54.71;102097.53;5039180;27;113882;-72
2021/06/09 02:43:07;;;;;;;31.58;27.38;;;;;;;19.08;54.54;102097.72;5033291;27;123793;-72
2021/06/09 02:45:34;;;;;;;29.58;26.33;;;;;;;19.06;54.75;102099.63;5045744;27;122657;-72
2021/06/09 02:48:12;;;;;;;29.48;25.60;;;;;;;19.03;54.80;102091.75;5046202;27;114131;-72
2021/06/09 02:50:39;;;;;;;29.73;26.52;;;;;;;19.02;54.74;102092.72;5039786;27;113720;-72
2021/06/09 02:53:33;;;;;;;26.45;23.65;;;;;;;19.00;54.52;102094.63;5040981;27;123538;-72
2021/06/09 02:56:24;;;;;;;25.85;23.10;;;;;;;18.96;54.54;102093.09;5032657;27;123900;-72
2021/06/09 02:59:29;;;;;;;26.67;23.80;;;;;;;18.95;54.42;102091.34;5038946;27;114249;-72
2021/06/09 03:02:08;;;;;;;28.95;25.42;;;;;;;18.91;54.67;102095.19;5043384;27;113876;-72
2021/06/09 03:05:06;;;;;;;27.83;24.27;;;;;;;18.89;54.63;102097.09;5042855;27;124113;-72
2021/06/09 03:07:50;;;;;;;29.27;25.05;;;;;;;18.88;54.79;102095.38;5044726;27;124024;-72
2021/06/09 03:10:27;;;;;;;26.75;23.58;;;;;;;18.88;54.68;102084.66;5039973;27;114261;-72
2021/06/09 03:13:24;;;;;;;29.02;24.38;;;;;;;18.86;54.62;102093.63;5045547;27;113937;-72
2021/06/09 03:15:58;;;;;;;27.05;23.75;;;;;;;18.88;54.82;102090.00;5035897;27;124806;-72
2021/06/09 03:18:41;;;;;;;27.63;24.65;;;;;;;18.88;54.87;102090.00;5036523;27;123855;-72
2021/06/09 03:21:16;;;;;;;29.33;24.50;;;;;;;18.88;54.92;102085.50;5042764;27;115417;-72
2021/06/09 03:24:13;;;;;;;27.75;24.67;;;;;;;18.85;54.72;102091.94;5045462;27;115133;-72
2021/06/09 03:26:48;;;;;;;26.88;24.08;;;;;;;18.84;54.86;102098.25;5057092;27;123346;-72
2021/06/09 03:29:42;;;;;;;26.42;23.58;;;;;;;18.82;54.65;102089.41;5043543;27;124109;-72
2021/06/09 03:32:24;;;;;;;27.67;24.58;;;;;;;18.80;54.92;102087.75;5059733;27;114226;-71
2021/06/09 03:35:03;;;;;;;27.98;23.80;;;;;;;18.80;54.89;102094.00;5041295;27;113836;-72
2021/06/09 03:37:36;;;;;;;25.98;23.00;;;;;;;18.79;54.97;102086.88;5042246;27;124084;-72
2021/06/09 03:40:06;;;;;;;25.67;22.80;;;;;;;18.79;54.98;102086.88;5044690;27;123937;-72
2021/06/09 03:42:37;;;;;;;28.98;24.60;;;;;;;18.78;54.93;102084.28;5038913;27;114379;-71
2021/06/09 03:45:06;;;;;;;29.35;24.58;;;;;;;18.78;55.17;102079.78;5045675;27;113207;-72
2021/06/09 03:47:34;;;;;;;27.92;24.42;;;;;;;18.78;55.08;102090.53;5040554;27;124503;-71
2021/06/09 03:50:03;;;;;;;28.13;24.80;;;;;;;18.78;55.45;102089.63;5038947;27;123259;-71
2021/06/09 03:52:32;;;;;;;30.08;25.02;;;;;;;18.79;55.28;102092.25;5041915;27;114134;-71
2021/06/09 03:55:00;;;;;;;33.03;25.05;;;;;;;18.78;55.24;102090.53;5036732;27;114326;-71
2021/06/09 03:57:32;;;;;;;30.02;24.60;;;;;;;18.78;55.59;102090.53;5037442;27;123764;-71
2021/06/09 04:00:00;;;;;;;29.23;24.25;;;;;;;18.79;55.44;102094.06;5037196;27;122968;-71
2021/06/09 04:02:28;;;;;;;30.92;24.83;;;;;;;18.79;55.65;102094.06;5026910;27;112797;-71
2021/06/09 04:04:57;;;;;;;29.50;25.05;;;;;;;18.78;55.65;102090.53;5052354;27;113572;-71
2021/06/09 04:07:27;;;;;;;27.45;23.60;;;;;;;18.79;55.64;102092.25;5048482;27;123993;-71
2021/06/09 04:09:57;;;;;;;28.83;24.60;;;;;;;18.80;55.47;102085.97;5050394;27;123516;-71
2021/06/09 04:12:25;;;;;;;26.25;23.52;;;;;;;18.81;55.44;102085.00;5056711;27;115338;-71
2021/06/09 04:14:54;;;;;;;29.25;24.50;;;;;;;18.82;55.75;102086.72;5055033;27;115351;-71
2021/06/09 04:17:27;;;;;;;27.70;24.23;;;;;;;18.83;55.77;102085.75;5041567;27;123100;-71
2021/06/09 04:20:01;;;;;;;26.83;23.88;;;;;;;18.85;55.87;102081.19;5041648;27;124081;-72
2021/06/09 04:22:28;;;;;;;25.88;23.17;;;;;;;18.88;55.52;102084.66;5051439;27;113897;-71
2021/06/09 04:24:56;;;;;;;28.05;24.17;;;;;;;18.91;55.78;102079.06;5047801;27;114640;-71
2021/06/09 04:27:27;;;;;;;32.15;26.52;;;;;;;18.95;55.84;102085.97;5051830;27;123640;-71
2021/06/09 04:29:55;;;;;;;33.08;25.88;;;;;;;18.98;56.06;102083.13;5032316;27;122955;-71
2021/06/09 04:32:24;;;;;;;31.38;27.63;;;;;;;19.01;56.18;102073.06;5043952;27;114202;-72
2021/06/09 04:34:55;;;;;;;37.97;33.55;;;;;;;19.05;56.46;102081.78;5050146;27;114491;-72
2021/06/09 04:37:25;;;;;;;43.22;36.40;;;;;;;19.10;56.71;102077.00;5042102;27;123786;-71
2021/06/09 04:39:53;;;;;;;44.85;36.40;;;;;;;19.15;56.46;102072.19;5057257;27;124664;-71
2021/06/09 04:42:21;;;;;;;40.05;34.90;;;;;;;19.20;56.77;102080.84;5040318;27;114037;-71
2021/06/09 04:44:48;;;;;;;42.75;36.80;;;;;;;19.27;56.59;102070.59;5052925;27;114049;-71
2021/06/09 04:47:15;;;;;;;43.22;37.22;;;;;;;19.33;57.08;102074.72;5043236;27;124091;-71
2021/06/09 04:49:45;;;;;;;50.75;39.70;;;;;;;19.39;57.05;102074.34;5050121;27;123261;-71
2021/06/09 04:52:14;;;;;;;47.38;41.58;;;;;;;19.46;57.19;102075.69;5047891;27;112471;-71
2021/06/09 04:54:42;;;;;;;53.83;45.35;;;;;;;19.55;57.26;102069.72;5043313;27;113976;-72
2021/06/09 04:57:09;;;;;;;56.55;47.33;;;;;;;19.63;57.27;102078.16;5046515;27;124281;-71
2021/06/09 04:59:36;;;;;;;66.78;49.25;;;;;;;19.73;57.70;102069.53;5043753;27;124011;-71
2021/06/09 05:02:04;;;;;;;62.92;50.08;;;;;;;19.83;57.69;102067.97;5046353;27;115129;-71
2021/06/09 05:04:32;;;;;;;66.57;51.10;;;;;;;19.92;57.62;102067.38;5034729;27;114261;-72
2021/06/09 05:06:59;;;;;;;64.65;51.25;;;;;;;20.02;57.82;102068.50;5048072;27;124280;-72
2021/06/09 05:09:27;;;;;;;69.18;54.15;;;;;;;20.12;57.76;102074.16;5046990;27;123235;-72
2021/06/09 05:12:13;;;;;;;69.18;53.72;;;;;;;20.23;57.78;102070.75;5048228;27;114394;-72
2021/06/09 05:14:50;;;;;;;69.72;54.78;;;;;;;20.32;57.64;102075.50;5068548;27;113387;-71
2021/06/09 05:17:22;;;;;;;67.43;56.65;;;;;;;20.42;57.66;102073.94;5051179;27;123819;-72
2021/06/09 05:19:50;;;;;;;73.82;57.55;;;;;;;20.52;57.66;102065.25;5049168;27;124328;-72
2021/06/09 05:22:29;;;;;;;64.88;55.47;;;;;;;20.62;57.52;102071.75;5044342;27;114582;-72
2021/06/09 05:25:01;;;;;;;62.63;53.60;;;;;;;20.71;57.45;102073.81;5048034;27;113014;-72
2021/06/09 05:27:29;;;;;;;68.68;54.50;;;;;;;20.82;57.50;102080.31;5044935;27;123407;-72
2021/06/09 05:29:57;;;;;;;63.00;53.13;;;;;;;20.92;57.42;102081.38;5051137;27;124124;-73
2021/06/09 05:32:26;;;;;;;61.88;51.78;;;;;;;21.01;57.35;102083.44;5059047;27;113492;-74
2021/06/09 05:34:53;;;;;;;66.75;53.70;;;;;;;21.13;57.31;102082.56;5058879;27;112230;-73
2021/06/09 05:37:21;;;;;;;60.08;52.53;;;;;;;21.24;57.25;102080.97;5059007;27;124328;-73
2021/06/09 05:39:49;;;;;;;64.75;54.30;;;;;;;21.35;57.24;102075.69;5045878;27;122193;-73
2021/06/09 05:42:16;;;;;;;63.95;52.92;;;;;;;21.48;56.94;102081.09;5043454;27;115110;-73
2021/06/09 05:44:47;;;;;;;63.70;52.35;;;;;;;21.58;56.88;102077.59;5045976;27;115141;-75
2021/06/09 05:47:15;;;;;;;60.53;51.08;;;;;;;21.70;56.60;102080.38;5041912;27;124140;-75
2021/06/09 05:49:42;;;;;;;63.03;51.22;;;;;;;21.82;56.43;102074.13;5045515;27;124060;-75
2021/06/09 05:52:11;;;;;;;58.38;52.05;;;;;;;21.92;56.54;102075.16;5046662;27;115284;-75
2021/06/09 05:54:41;;;;;;;56.05;49.90;;;;;;;22.05;56.49;102074.25;5028201;27;113642;-75
2021/06/09 05:57:10;;;;;;;59.70;51.88;;;;;;;22.16;56.24;102074.31;5026938;27;123823;-75
2021/06/09 05:59:39;;;;;;;59.58;49.47;;;;;;;22.29;55.86;102080.56;5059707;27;123401;-75
2021/06/09 06:02:06;;;;;;;55.42;49.28;;;;;;;22.43;55.76;102073.25;5043704;27;112975;-75
2021/06/09 06:04:35;;;;;;;54.00;48.13;;;;;;;22.54;55.75;102070.59;5042616;27;113017;-74
2021/06/09 06:07:02;;;;;;;55.13;48.47;;;;;;;22.66;55.28;102075.06;5049882;27;124573;-73
2021/06/09 06:09:30;;;;;;;61.85;47.20;;;;;;;22.80;55.39;102081.25;5051994;27;124052;-73
2021/06/09 06:11:57;;;;;;;54.97;46.17;;;;;;;22.95;55.47;102074.63;5028375;27;114396;-71
2021/06/09 06:14:24;;;;;;;49.88;44.15;;;;;;;23.11;55.30;102080.59;5040151;27;114025;-72
2021/06/09 06:16:53;;;;;;;49.20;43.75;;;;;;;23.27;55.07;102084.78;5037767;27;123288;-73
2021/06/09 06:19:21;;;;;;;46.35;41.38;;;;;;;23.42;55.02;102078.16;5049908;27;123695;-73
2021/06/09 06:21:48;;;;;;;45.42;40.30;;;;;;;23.59;54.58;102078.66;5028781;27;113469;-73
2021/06/09 06:24:17;;;;;;;47.30;40.72;;;;;;;23.75;54.24;102073.69;5024585;27;113176;-73
2021/06/09 06:26:49;;;;;;;44.90;40.00;;;;;;;23.95;54.32;102068.53;5053292;27;124336;-73
2021/06/09 06:29:17;;;;;;;47.30;40.97;;;;;;;24.14;53.76;102074.13;5034839;27;123833;-73
2021/06/09 06:31:45;;;;;;;50.10;42.92;;;;;;;24.29;53.16;102064.72;5041645;27;114167;-72
2021/06/09 06:34:18;;;;;;;48.83;43.58;;;;;;;24.46;52.83;102076.84;5054631;27;113310;-72
2021/06/09 06:36:48;;;;;;;51.20;44.85;;;;;;;24.62;52.75;102068.31;5039053;27;123297;-72
2021/06/09 06:39:15;;;;;;;47.88;42.70;;;;;;;24.79;52.14;102071.41;5052527;27;122946;-73
2021/06/09 06:41:42;;;;;;;48.35;43.13;;;;;;;24.95;52.07;102074.53;5053564;27;114126;-72
2021/06/09 06:44:11;;;;;;;47.88;42.83;;;;;;;25.12;51.42;102074.91;5052803;27;114221;-72
2021/06/09 06:46:38;;;;;;;45.10;40.22;;;;;;;25.26;51.23;102077.31;5052183;27;123866;-72
2021/06/09 06:49:07;;;;;;;45.55;40.70;;;;;;;25.40;50.97;102070.66;5054119;27;121863;-73
2021/06/09 06:51:34;;;;;;;43.60;38.92;;;;;;;25.55;50.17;102071.13;5053575;27;114395;-72
2021/06/09 06:54:02;;;;;;;42.33;37.72;;;;;;;25.66;49.53;102073.75;5052599;27;113431;-72
2021/06/09 06:56:29;;;;;;;41.90;37.53;;;;;;;25.78;49.03;102072.63;5053004;27;124158;-73
2021/06/09 06:58:56;;;;;;;41.63;37.13;;;;;;;25.91;49.31;102085.09;5054381;27;123284;-73
2021/06/09 07:01:29;;;;;;;42.75;38.08;;;;;;;26.03;49.23;102081.28;5054095;27;112028;-73
2021/06/09 07:03:58;;;;;;;42.15;37.78;;;;;;;26.17;48.38;102083.59;5056486;27;112192;-73
2021/06/09 07:06:25;;;;;;;42.92;38.40;;;;;;;26.29;48.76;102086.19;5051351;27;122897;-73
2021/06/09 07:09:02;;;;;;;42.13;37.80;;;;;;;26.44;48.06;102084.75;5050801;27;124095;-73
2021/06/09 07:11:31;;;;;;;42.47;37.88;;;;;;;26.59;47.32;102077.91;5054180;27;113391;-73
2021/06/09 07:13:59;;;;;;;39.30;35.00;;;;;;;26.76;47.25;102083.63;5054955;27;114475;-72
2021/06/09 07:16:33;;;;;;;41.65;37.47;;;;;;;26.90;47.09;102091.34;5054047;27;124000;-73
2021/06/09 07:19:01;;;;;;;40.42;36.13;;;;;;;27.04;46.65;102098.16;5045434;22;123031;-73
2021/06/09 07:21:29;;;;;;;39.28;35.15;;;;;;;27.15;46.44;102091.69;5024726;28;114374;-74
2021/06/09 07:23:56;;;;;;;39.15;34.78;;;;;;;27.28;45.89;102092.25;5029929;28;112139;-76
2021/06/09 07:26:23;;;;;;;38.72;34.63;;;;;;;27.35;45.35;102085.22;4994434;28;123686;-75
2021/06/09 07:28:57;;;;;;;40.22;35.92;;;;;;;27.48;45.52;102094.91;5008591;28;123119;-76
2021/06/09 07:31:29;;;;;;;41.00;36.65;;;;;;;27.60;45.25;102080.09;5005652;28;115215;-76
2021/06/09 07:33:57;;;;;;;39.05;34.92;;;;;;;27.72;45.35;102087.03;5002203;28;115207;-76
2021/06/09 07:36:30;;;;;;;38.60;34.20;;;;;;;27.82;44.41;102084.28;4995920;28;123844;-74
2021/06/09 07:39:03;;;;;;;37.25;33.45;;;;;;;27.92;43.70;102086.97;5008555;28;122738;-74
2021/06/09 07:41:32;;;;;;;37.50;33.45;;;;;;;28.02;44.32;102076.88;5008414;28;114169;-75
2021/06/09 07:44:04;;;;;;;41.22;34.17;;;;;;;28.11;43.76;102081.38;5026084;28;113070;-74
2021/06/09 07:46:32;;;;;;;35.35;31.73;;;;;;;28.20;43.48;102079.63;5019036;28;122793;-74
2021/06/09 07:49:03;;;;;;;35.25;31.42;;;;;;;28.27;43.62;102085.28;5000125;28;123741;-74
2021/06/09 07:51:31;;;;;;;35.65;31.95;;;;;;;28.32;43.26;102082.97;4990780;28;113201;-75
2021/06/09 07:54:01;;;;;;;31.15;27.15;;;;;;;28.38;42.57;102095.09;4998444;28;113520;-74
2021/06/09 07:56:35;;;;;;;25.90;23.27;;;;;;;28.42;41.60;102089.16;5022924;28;123761;-75
2021/06/09 07:59:05;;;;;;;32.67;29.30;;;;;;;28.45;42.40;102090.75;5027008;28;123318;-74
2021/06/09 08:01:34;;;;;;;32.92;29.63;;;;;;;28.53;42.42;102093.56;5027034;28;114988;-74
2021/06/09 08:04:02;;;;;;;33.17;29.63;;;;;;;28.61;41.99;102098.22;5021055;28;113089;-74
2021/06/09 08:06:30;;;;;;;28.40;25.52;;;;;;;28.67;41.75;102092.13;5008261;28;123525;-74
2021/06/09 08:08:57;;;;;;;29.35;25.90;;;;;;;28.69;41.56;102095.59;5009286;28;124317;-74
2021/06/09 08:11:24;;;;;;;26.23;23.60;;;;;;;28.72;41.47;102097.97;5010665;28;114084;-75
2021/06/09 08:13:52;;;;;;;27.23;24.33;;;;;;;28.74;41.21;102098.69;5010841;28;114056;-75
2021/06/09 08:16:20;;;;;;;26.42;23.70;;;;;;;28.74;41.23;102093.22;5008699;28;124109;-74
2021/06/09 08:18:48;;;;;;;25.65;23.05;;;;;;;28.78;41.00;102093.75;5022115;28;123991;-75
2021/06/09 08:21:17;;;;;;;25.50;20.83;;;;;;;28.81;41.37;102094.31;5025688;28;115327;-74
2021/06/09 08:23:47;;;;;;;25.13;22.35;;;;;;;28.88;40.63;102095.38;5029234;28;115400;-74
2021/06/09 08:26:16;;;;;;;19.27;17.23;;;;;;;28.97;40.44;102098.16;5015651;28;123743;-74
2021/06/09 08:28:44;;;;;;;19.55;17.45;;;;;;;29.02;40.46;102093.09;5016531;28;123147;-74
2021/06/09 08:31:14;;;;;;;22.67;18.95;;;;;;;29.10;40.07;102093.13;5008146;28;113371;-74
2021/06/09 08:33:42;;;;;;;23.13;20.65;;;;;;;29.17;39.72;102099.69;5011131;28;115361;-74
2021/06/09 08:36:12;;;;;;;24.55;21.90;;;;;;;29.21;39.58;102095.63;4995937;28;124379;-73
2021/06/09 08:38:41;;;;;;;23.80;21.35;;;;;;;29.24;39.68;102100.78;5008210;28;123027;-73
2021/06/09 08:41:10;;;;;;;28.30;24.10;;;;;;;29.29;39.70;102097.53;5008988;28;114987;-76
2021/06/09 08:43:41;;;;;;;27.48;24.48;;;;;;;29.33;39.38;102098.06;5008910;28;114686;-73
2021/06/09 08:46:09;;;;;;;24.45;21.98;;;;;;;29.38;39.91;102101.19;5003791;28;123247;-75
2021/06/09 08:48:39;;;;;;;25.98;23.25;;;;;;;29.42;39.04;102097.09;5022113;28;123712;-74
2021/06/09 08:51:09;;;;;;;28.30;25.25;;;;;;;29.45;39.50;102103.09;5007463;28;114351;-74
2021/06/09 08:53:41;;;;;;;26.10;21.77;;;;;;;29.49;39.13;102100.91;5017660;28;114455;-74
2021/06/09 08:56:08;;;;;;;23.38;20.20;;;;;;;29.53;38.64;102098.69;5030714;28;123550;-74
2021/06/09 08:58:36;;;;;;;23.27;20.90;;;;;;;29.55;38.78;102108.41;5025607;28;123754;-74
2021/06/09 09:01:07;;;;;;;25.77;22.20;;;;;;;29.58;37.93;102108.09;5013676;28;114195;-74
2021/06/09 09:03:36;;;;;;;24.02;21.35;;;;;;;29.58;38.42;102101.81;5012606;28;114276;-74
2021/06/09 09:06:04;;;;;;;22.40;19.38;;;;;;;29.59;38.15;102096.19;5021872;28;124855;-74
2021/06/09 09:08:32;;;;;;;24.65;20.73;;;;;;;29.63;37.84;102111.22;4996862;28;122849;-73
2021/06/09 09:11:00;;;;;;;23.63;20.90;;;;;;;29.66;38.13;102110.88;5012817;28;115377;-74
2021/06/09 09:13:27;;;;;;;22.38;19.98;;;;;;;29.68;37.30;102106.09;5012791;28;114806;-75
2021/06/09 09:15:55;;;;;;;20.17;18.08;;;;;;;29.70;37.63;102112.28;5008299;28;124019;-74
2021/06/09 09:19:02;;;;;;;22.40;19.77;;;;;;;29.74;37.87;102106.50;5004592;28;123048;-74
2021/06/09 09:21:43;;;;;;;21.52;19.40;;;;;;;29.85;38.09;102108.91;4983157;28;114278;-74
2021/06/09 09:24:12;;;;;;;21.40;19.15;;;;;;;29.93;37.78;102111.66;5014349;28;113306;-74
2021/06/09 09:26:42;;;;;;;22.73;20.35;;;;;;;30.02;37.28;102109.81;4995186;28;123731;-76
2021/06/09 09:29:21;;;;;;;21.70;19.27;;;;;;;30.07;37.08;102108.31;5012557;28;122943;-75
2021/06/09 09:31:54;;;;;;;22.05;18.20;;;;;;;30.16;36.78;102102.84;4991697;28;114393;-76
2021/06/09 09:34:43;;;;;;;22.00;19.67;;;;;;;30.25;37.21;102110.03;5006916;28;114134;-76
2021/06/09 09:37:16;;;;;;;23.20;20.60;;;;;;;30.32;37.13;102097.44;5020749;28;123966;-75
2021/06/09 09:39:52;;;;;;;24.70;22.02;;;;;;;30.35;36.99;102109.94;5010499;28;124468;-75
2021/06/09 09:42:31;;;;;;;22.77;20.27;;;;;;;30.36;36.29;102112.47;5011232;28;114933;-75
2021/06/09 09:45:21;;;;;;;24.60;19.23;;;;;;;30.38;36.47;102109.59;5020551;28;114181;-75
2021/06/09 09:48:03;;;;;;;23.15;18.52;;;;;;;30.41;36.54;102112.84;5005981;28;124978;-76
2021/06/09 09:50:35;;;;;;;19.70;17.70;;;;;;;30.43;35.93;102110.78;5009405;28;124031;-74
2021/06/09 09:53:22;;;;;;;21.17;18.98;;;;;;;30.37;35.75;102108.75;5012240;28;115079;-75
2021/06/09 09:55:59;;;;;;;19.85;17.35;;;;;;;30.32;35.85;102119.31;4996441;28;115061;-75
2021/06/09 09:58:28;;;;;;;23.13;19.02;;;;;;;30.32;35.43;102111.13;4997788;28;124402;-75
2021/06/09 10:01:12;;;;;;;18.70;16.50;;;;;;;30.34;35.63;102114.53;5007933;28;123124;-75
2021/06/09 10:03:41;;;;;;;16.73;14.98;;;;;;;30.34;34.90;102110.94;4995649;28;115403;-75
2021/06/09 10:06:39;;;;;;;17.73;15.15;;;;;;;30.23;35.01;102112.09;4993936;28;115034;-74
2021/06/09 10:09:12;;;;;;;17.92;14.38;;;;;;;30.13;35.02;102112.25;4993341;28;124695;-75
2021/06/09 10:11:44;;;;;;;16.52;14.82;;;;;;;30.05;34.92;102115.81;4992114;28;124109;-75
2021/06/09 10:14:19;;;;;;;15.13;13.60;;;;;;;29.96;34.93;102114.06;4994613;28;115047;-75
2021/06/09 10:16:48;;;;;;;;;;;;;;;29.89;35.75;102110.28;4995768;28;114124;-75
2021/06/09 10:19:16;;;;;;;16.23;14.52;;;;;;;29.88;35.29;102106.72;4999665;28;124907;-75
2021/06/09 10:21:53;;;;;;;13.30;11.73;;;;;;;29.90;35.67;102106.56;5010900;28;124580;-75
2021/06/09 10:24:22;;;;;;;11.27;10.07;;;;;;;30.00;35.13;102107.25;4994470;28;113095;-76
2021/06/09 10:26:53;;;;;;;10.43;9.05;;;;;;;30.15;34.67;102109.34;5009240;28;117504;-73
2021/06/09 10:29:23;;;;;;;12.13;10.05;;;;;;;30.30;35.00;102104.94;5005004;28;125340;-74
2021/06/09 10:32:01;;;;;;;15.32;13.73;;;;;;;30.43;34.22;102091.66;4997587;28;124082;-74
2021/06/09 10:34:32;;;;;;;14.38;12.88;;;;;;;30.60;34.84;102097.13;5003649;28;113472;-77
2021/06/09 10:37:00;;;;;;;15.23;13.77;;;;;;;30.75;34.88;102100.88;4997552;28;113983;-74
2021/06/09 10:39:30;;;;;;;15.10;13.02;;;;;;;30.89;34.42;102096.56;5007481;28;123261;-73
2021/06/09 10:42:01;;;;;;;13.77;12.35;;;;;;;31.00;33.96;102092.66;5000082;28;123230;-74
2021/06/09 10:44:38;;;;;;;13.70;12.30;;;;;;;31.07;34.31;102093.69;4996655;28;114129;-74
2021/06/09 10:47:09;;;;;;;16.35;12.18;;;;;;;31.13;33.72;102097.59;5009188;28;113654;-74
2021/06/09 10:49:38;;;;;;;14.45;11.93;;;;;;;31.15;32.71;102096.41;5012214;28;124200;-73
2021/06/09 10:52:06;;;;;;;15.77;13.45;;;;;;;31.12;32.44;102096.75;5010904;28;124079;-73
2021/06/09 10:54:34;;;;;;;14.43;12.70;;;;;;;31.06;32.89;102086.50;5007903;28;114282;-73
2021/06/09 10:57:02;;;;;;;15.70;14.10;;;;;;;30.95;32.18;102085.00;5003014;28;114302;-72
2021/06/09 10:59:32;;;;;;;16.17;13.07;;;;;;;30.84;32.68;102088.06;4998126;28;123897;-74
2021/06/09 11:02:12;;;;;;;18.02;13.80;;;;;;;30.75;32.98;102084.47;5008601;28;124058;-73
2021/06/09 11:04:46;;;;;;;18.92;13.65;;;;;;;30.64;33.07;102093.03;5006114;28;97133;-73
2021/06/09 11:07:43;;;;;;;24.20;15.00;;;;;;;30.50;33.42;102090.97;5010599;28;114465;-73
2021/06/09 11:10:14;;;;;;;15.07;12.93;;;;;;;30.41;33.34;102088.22;5003466;28;123770;-74
2021/06/09 11:12:42;;;;;;;17.40;11.98;;;;;;;30.38;33.74;102094.03;5017198;27;123594;-74
2021/06/09 11:15:11;;;;;;;16.33;13.32;;;;;;;30.43;33.28;102075.25;5009185;28;114506;-74
2021/06/09 11:17:46;;;;;;;12.10;10.77;;;;;;;30.52;33.71;102078.00;5009928;28;113767;-74
2021/06/09 11:20:18;;;;;;;15.00;12.52;;;;;;;30.59;33.63;102073.53;5007217;28;124295;-73